createdAt,value
2017-11-17T00:04:03.377Z,14.40
2017-11-17T00:06:30.993Z,15.60
2017-11-17T00:08:58.551Z,14.67
2017-11-17T00:11:26.068Z,15.23
2017-11-17T00:13:53.742Z,12.37
2017-11-17T00:16:21.275Z,12.33
2017-11-17T00:18:48.805Z,12.17
2017-11-17T00:21:16.386Z,11.20
2017-11-17T00:23:43.930Z,14.03
2017-11-17T00:26:11.450Z,11.30
2017-11-17T00:28:39.076Z,13.03
2017-11-17T00:31:06.678Z,9.40
2017-11-17T00:33:34.210Z,10.00
2017-11-17T00:36:01.738Z,13.00
2017-11-17T00:38:29.353Z,9.43
2017-11-17T00:40:56.912Z,9.43
2017-11-17T00:43:24.937Z,8.83
2017-11-17T00:45:52.500Z,9.30
2017-11-17T00:48:20.026Z,8.50
2017-11-17T00:50:47.531Z,7.20
2017-11-17T00:53:15.155Z,11.47
2017-11-17T00:55:42.655Z,8.60
2017-11-17T00:58:10.749Z,7.10
2017-11-17T01:00:38.331Z,7.50
2017-11-17T01:03:08.203Z,9.00
2017-11-17T01:05:35.928Z,9.90
2017-11-17T01:08:03.796Z,7.70
2017-11-17T01:10:31.299Z,6.80
2017-11-17T01:12:59.780Z,9.57
2017-11-17T01:15:30.330Z,7.63
2017-11-17T01:17:58.023Z,6.60
2017-11-17T01:20:25.538Z,8.40
2017-11-17T01:22:53.104Z,6.90
2017-11-17T01:25:20.672Z,10.07
2017-11-17T01:27:48.186Z,5.87
2017-11-17T01:30:15.747Z,7.53
2017-11-17T01:32:43.308Z,10.20
2017-11-17T01:35:10.835Z,7.33
2017-11-17T01:37:38.415Z,6.47
2017-11-17T01:40:05.948Z,6.30
2017-11-17T01:42:33.462Z,7.90
2017-11-17T01:45:01.139Z,10.77
2017-11-17T01:47:28.668Z,7.20
2017-11-17T01:49:56.259Z,10.60
2017-11-17T01:52:23.918Z,9.13
2017-11-17T01:54:51.480Z,7.17
2017-11-17T01:57:19.060Z,7.67
2017-11-17T01:59:46.640Z,8.97
2017-11-17T02:02:20.030Z,6.37
2017-11-17T02:04:47.558Z,6.80
2017-11-17T02:07:15.066Z,7.27
2017-11-17T02:09:42.643Z,10.13
2017-11-17T02:12:10.291Z,6.67
2017-11-17T02:14:38.070Z,7.80
2017-11-17T02:17:05.656Z,8.67
2017-11-17T02:19:33.261Z,10.37
2017-11-17T02:22:00.883Z,9.47
2017-11-17T02:24:28.626Z,9.93
2017-11-17T02:26:56.181Z,9.70
2017-11-17T02:29:23.731Z,7.70
2017-11-17T02:31:51.337Z,6.40
2017-11-17T02:34:18.850Z,8.67
2017-11-17T02:36:46.424Z,6.57
2017-11-17T02:39:14.134Z,8.47
2017-11-17T02:41:41.666Z,7.80
2017-11-17T02:44:09.224Z,6.70
2017-11-17T02:46:36.849Z,8.00
2017-11-17T02:49:04.384Z,8.03
2017-11-17T02:51:31.941Z,7.57
2017-11-17T02:53:59.552Z,6.53
2017-11-17T02:56:27.155Z,6.10
2017-11-17T02:58:54.741Z,6.53
2017-11-17T03:01:22.340Z,5.73
2017-11-17T03:03:49.874Z,8.93
2017-11-17T03:06:17.397Z,9.63
2017-11-17T03:08:45.004Z,6.43
2017-11-17T03:11:12.531Z,7.13
2017-11-17T03:13:40.873Z,5.43
2017-11-17T03:16:08.584Z,7.73
2017-11-17T03:18:36.150Z,7.37
2017-11-17T03:21:03.765Z,10.77
2017-11-17T03:23:31.402Z,7.27
2017-11-17T03:25:59.198Z,9.60
2017-11-17T03:28:26.791Z,6.37
2017-11-17T03:30:54.348Z,6.27
2017-11-17T03:33:21.904Z,8.60
2017-11-17T03:35:49.486Z,6.97
2017-11-17T03:38:17.057Z,7.40
2017-11-17T03:40:44.665Z,4.70
2017-11-17T03:43:12.216Z,7.53
2017-11-17T03:45:39.806Z,8.33
2017-11-17T03:48:07.411Z,8.43
2017-11-17T03:50:34.919Z,7.57
2017-11-17T03:53:02.475Z,6.70
2017-11-17T03:55:29.997Z,9.70
2017-11-17T03:57:57.569Z,8.53
2017-11-17T04:00:25.192Z,7.73
2017-11-17T04:02:52.770Z,6.93
2017-11-17T04:05:20.280Z,7.37
2017-11-17T04:07:47.898Z,7.70
2017-11-17T04:10:15.457Z,11.60
2017-11-17T04:12:43.022Z,9.57
2017-11-17T04:15:10.700Z,6.20
2017-11-17T04:17:38.272Z,8.73
2017-11-17T04:20:05.867Z,6.50
2017-11-17T04:22:33.483Z,6.67
2017-11-17T04:25:01.080Z,8.03
2017-11-17T04:27:28.669Z,11.37
2017-11-17T04:29:56.261Z,10.10
2017-11-17T04:32:23.872Z,7.17
2017-11-17T04:34:51.393Z,7.70
2017-11-17T04:37:18.899Z,8.67
2017-11-17T04:39:46.559Z,8.50
2017-11-17T04:42:14.080Z,6.67
2017-11-17T04:44:41.629Z,10.10
2017-11-17T04:47:09.275Z,7.40
2017-11-17T04:49:36.863Z,9.37
2017-11-17T04:52:04.437Z,8.37
2017-11-17T04:54:32.046Z,10.77
2017-11-17T04:56:59.589Z,11.00
2017-11-17T04:59:27.099Z,7.90
2017-11-17T05:01:54.658Z,8.43
2017-11-17T05:04:22.274Z,9.13
2017-11-17T05:06:49.882Z,13.40
2017-11-17T05:09:17.498Z,14.30
2017-11-17T05:11:45.256Z,11.80
2017-11-17T05:14:12.803Z,11.93
2017-11-17T05:16:46.566Z,8.37
2017-11-17T05:19:14.136Z,19.40
2017-11-17T05:21:41.654Z,9.50
2017-11-17T05:24:09.239Z,10.17
2017-11-17T05:26:36.757Z,12.37
2017-11-17T05:29:04.275Z,13.13
2017-11-17T05:31:31.881Z,10.10
2017-11-17T05:33:59.422Z,8.83
2017-11-17T05:36:26.984Z,7.70
2017-11-17T05:38:54.530Z,10.37
2017-11-17T05:41:22.092Z,11.93
2017-11-17T05:43:49.711Z,15.60
2017-11-17T05:46:17.374Z,9.73
2017-11-17T05:48:45.131Z,11.13
2017-11-17T05:51:12.687Z,10.80
2017-11-17T05:53:40.255Z,8.43
2017-11-17T05:56:07.812Z,11.30
2017-11-17T05:58:35.604Z,8.87
2017-11-17T06:01:03.206Z,10.87
2017-11-17T06:03:30.947Z,11.83
2017-11-17T06:05:59.392Z,8.60
2017-11-17T06:08:26.993Z,12.37
2017-11-17T06:10:54.524Z,12.80
2017-11-17T06:13:22.048Z,13.47
2017-11-17T06:15:49.912Z,14.03
2017-11-17T06:18:17.555Z,13.00
2017-11-17T06:20:45.076Z,12.90
2017-11-17T06:23:12.660Z,11.40
2017-11-17T06:25:40.411Z,10.93
2017-11-17T06:28:07.973Z,12.40
2017-11-17T06:30:35.633Z,13.67
2017-11-17T06:33:03.394Z,14.47
2017-11-17T06:35:31.010Z,17.83
2017-11-17T06:37:58.608Z,12.57
2017-11-17T06:40:26.453Z,10.87
2017-11-17T06:42:53.995Z,23.40
2017-11-17T06:45:21.582Z,9.00
2017-11-17T06:47:49.103Z,13.60
2017-11-17T06:50:16.675Z,14.37
2017-11-17T06:52:44.263Z,10.50
2017-11-17T06:55:11.854Z,13.03
2017-11-17T06:57:39.589Z,12.67
2017-11-17T07:00:07.312Z,13.00
2017-11-17T07:02:34.841Z,13.03
2017-11-17T07:05:02.448Z,15.20
2017-11-17T07:07:30.032Z,18.87
2017-11-17T07:09:57.770Z,15.57
2017-11-17T07:12:25.292Z,13.17
2017-11-17T07:14:52.919Z,10.30
2017-11-17T07:17:20.431Z,11.83
2017-11-17T07:19:48.207Z,12.83
2017-11-17T07:22:15.784Z,11.93
2017-11-17T07:24:43.381Z,12.20
2017-11-17T07:27:11.221Z,11.63
2017-11-17T07:29:38.870Z,10.70
2017-11-17T07:32:06.515Z,11.97
2017-11-17T07:34:34.082Z,17.07
2017-11-17T07:37:01.837Z,9.27
2017-11-17T07:39:29.396Z,11.20
2017-11-17T07:41:56.985Z,10.40
2017-11-17T07:44:24.543Z,22.70
2017-11-17T07:46:52.116Z,18.97
2017-11-17T07:49:19.644Z,20.27
2017-11-17T07:51:47.390Z,10.93
2017-11-17T07:54:14.981Z,16.37
2017-11-17T07:56:42.527Z,16.63
2017-11-17T07:59:10.054Z,12.80
2017-11-17T08:01:37.673Z,14.03
2017-11-17T08:04:05.274Z,15.10
2017-11-17T08:06:32.855Z,12.93
2017-11-17T08:09:00.448Z,14.67
2017-11-17T08:11:27.981Z,14.60
2017-11-17T08:13:55.715Z,17.43
2017-11-17T08:16:23.287Z,14.50
2017-11-17T08:18:50.796Z,16.00
2017-11-17T08:21:18.353Z,15.17
2017-11-17T08:23:45.931Z,11.27
2017-11-17T08:26:13.438Z,9.70
2017-11-17T08:28:40.969Z,19.37
2017-11-17T08:31:08.595Z,13.63
2017-11-17T08:33:36.347Z,15.97
2017-11-17T08:36:03.912Z,16.70
2017-11-17T08:38:31.482Z,16.30
2017-11-17T08:40:59.039Z,19.93
2017-11-17T08:43:26.708Z,12.73
2017-11-17T08:45:54.390Z,13.30
2017-11-17T08:48:21.926Z,15.23
2017-11-17T08:50:49.459Z,25.50
2017-11-17T08:53:17.082Z,14.47
2017-11-17T08:55:44.694Z,13.43
2017-11-17T08:58:12.256Z,15.60
2017-11-17T09:00:39.831Z,13.53
2017-11-17T09:03:07.381Z,13.50
2017-11-17T09:05:34.900Z,18.17
2017-11-17T09:08:03.188Z,14.73
2017-11-17T09:10:30.719Z,18.17
2017-11-17T09:12:58.283Z,15.77
2017-11-17T09:15:25.889Z,12.50
2017-11-17T09:17:53.496Z,15.53
2017-11-17T09:20:21.008Z,12.73
2017-11-17T09:22:48.623Z,10.83
2017-11-17T09:25:16.170Z,9.60
2017-11-17T09:27:43.948Z,13.40
2017-11-17T09:30:11.663Z,16.73
2017-11-17T09:32:39.231Z,11.83
2017-11-17T09:35:06.752Z,16.40
2017-11-17T09:37:34.355Z,12.57
2017-11-17T09:40:01.910Z,15.90
2017-11-17T09:42:29.492Z,12.43
2017-11-17T09:44:57.169Z,19.23
2017-11-17T09:47:24.715Z,16.53
2017-11-17T09:49:52.296Z,13.47
2017-11-17T09:52:19.910Z,12.93
2017-11-17T09:54:47.529Z,11.67
2017-11-17T09:57:15.305Z,8.93
2017-11-17T09:59:42.923Z,14.10
2017-11-17T10:02:10.531Z,18.50
2017-11-17T10:04:38.105Z,15.87
2017-11-17T10:07:05.672Z,16.47
2017-11-17T10:09:33.387Z,17.60
2017-11-17T10:12:00.992Z,16.80
2017-11-17T10:14:28.552Z,14.40
2017-11-17T10:16:56.209Z,18.67
2017-11-17T10:19:23.744Z,13.50
2017-11-17T10:21:51.301Z,18.60
2017-11-17T10:24:19.812Z,16.30
2017-11-17T10:26:47.338Z,18.23
2017-11-17T10:29:14.921Z,15.77
2017-11-17T10:31:42.520Z,15.73
2017-11-17T10:34:10.054Z,22.03
2017-11-17T10:36:37.598Z,21.83
2017-11-17T10:39:05.228Z,16.30
2017-11-17T10:41:32.794Z,23.30
2017-11-17T10:44:00.342Z,18.60
2017-11-17T10:46:27.950Z,19.57
2017-11-17T10:48:55.776Z,19.27
2017-11-17T10:51:23.320Z,21.33
2017-11-17T10:53:51.422Z,19.77
2017-11-17T10:56:34.356Z,20.67
2017-11-17T10:59:04.705Z,19.03
2017-11-17T11:01:32.370Z,18.30
2017-11-17T11:03:59.967Z,13.60
2017-11-17T11:06:27.731Z,16.20
2017-11-17T11:08:55.334Z,13.60
2017-11-17T11:11:28.467Z,12.80
2017-11-17T11:13:56.085Z,16.97
2017-11-17T11:16:23.637Z,19.23
2017-11-17T11:18:51.393Z,17.20
2017-11-17T11:21:19.016Z,13.83
2017-11-17T11:23:46.580Z,10.07
2017-11-17T11:26:14.155Z,16.90
2017-11-17T11:28:41.756Z,12.70
2017-11-17T11:31:09.403Z,14.53
2017-11-17T11:33:37.044Z,17.50
2017-11-17T11:36:04.583Z,12.77
2017-11-17T11:38:32.187Z,12.03
2017-11-17T11:40:59.760Z,13.63
2017-11-17T11:43:27.278Z,9.50
2017-11-17T11:45:54.854Z,9.60
2017-11-17T11:48:22.388Z,9.90
2017-11-17T11:50:49.923Z,16.60
2017-11-17T11:53:17.495Z,9.20
2017-11-17T11:55:45.044Z,13.00
2017-11-17T11:58:12.563Z,12.70
2017-11-17T12:00:40.155Z,7.63
2017-11-17T12:03:07.748Z,12.33
2017-11-17T12:05:35.351Z,7.93
2017-11-17T12:08:02.959Z,11.90
2017-11-17T12:10:30.482Z,11.97
2017-11-17T12:12:58.030Z,13.20
2017-11-17T12:15:25.614Z,10.30
2017-11-17T12:17:53.122Z,17.20
2017-11-17T12:20:20.872Z,12.00
2017-11-17T12:22:48.457Z,15.90
2017-11-17T12:25:15.966Z,12.50
2017-11-17T12:27:43.506Z,15.47
2017-11-17T12:30:11.143Z,17.13
2017-11-17T12:32:38.703Z,18.87
2017-11-17T12:35:06.317Z,15.50
2017-11-17T12:37:34.008Z,13.90
2017-11-17T12:40:01.550Z,14.37
2017-11-17T12:42:29.307Z,8.20
2017-11-17T12:44:56.955Z,10.70
2017-11-17T12:47:24.725Z,8.30
2017-11-17T12:49:52.314Z,8.47
2017-11-17T12:52:23.131Z,6.03
2017-11-17T12:54:50.914Z,6.30
2017-11-17T12:57:18.592Z,9.50
2017-11-17T12:59:46.324Z,9.13
2017-11-17T13:02:13.896Z,6.27
2017-11-17T13:04:41.660Z,5.60
2017-11-17T13:07:09.461Z,4.93
2017-11-17T13:09:37.061Z,6.17
2017-11-17T13:12:04.683Z,9.73
2017-11-17T13:14:32.707Z,7.33
2017-11-17T13:17:00.336Z,9.13
2017-11-17T13:19:27.969Z,9.40
2017-11-17T13:21:55.484Z,8.10
2017-11-17T13:24:25.671Z,8.57
2017-11-17T13:26:53.396Z,6.57
2017-11-17T13:29:21.022Z,7.13
2017-11-17T13:31:48.683Z,9.80
2017-11-17T13:34:16.794Z,7.00
2017-11-17T13:36:44.346Z,11.07
2017-11-17T13:39:11.954Z,6.37
2017-11-17T13:41:39.479Z,8.50
2017-11-17T13:44:07.280Z,9.77
2017-11-17T13:46:35.701Z,7.70
2017-11-17T13:49:03.528Z,7.90
2017-11-17T13:51:31.349Z,13.13
2017-11-17T13:53:58.928Z,8.77
2017-11-17T13:56:26.556Z,10.30
2017-11-17T13:58:54.461Z,7.80
2017-11-17T14:01:22.094Z,7.43
2017-11-17T14:03:50.576Z,5.53
2017-11-17T14:06:18.175Z,6.53
2017-11-17T14:08:45.759Z,7.80
2017-11-17T14:11:14.352Z,8.23
2017-11-17T14:13:43.039Z,7.67
2017-11-17T14:16:10.638Z,7.80
2017-11-17T14:18:38.249Z,8.00
2017-11-17T14:21:05.883Z,5.00
2017-11-17T14:23:33.667Z,6.60
2017-11-17T14:26:01.343Z,14.70
2017-11-17T14:28:29.047Z,12.83
2017-11-17T14:30:56.634Z,23.03
2017-11-17T14:33:24.436Z,15.83
2017-11-17T14:35:52.056Z,10.30
2017-11-17T14:38:19.676Z,11.13
2017-11-17T14:40:47.504Z,9.03
2017-11-17T14:43:15.031Z,9.13
2017-11-17T14:45:42.672Z,5.17
2017-11-17T14:48:10.220Z,8.33
2017-11-17T14:50:38.019Z,9.30
2017-11-17T14:53:05.649Z,8.33
2017-11-17T14:55:33.429Z,5.53
2017-11-17T14:58:01.022Z,8.30
2017-11-17T15:00:28.892Z,7.07
2017-11-17T15:02:56.545Z,7.90
2017-11-17T15:05:24.297Z,7.63
2017-11-17T15:07:51.967Z,8.17
2017-11-17T15:10:19.663Z,5.50
2017-11-17T15:12:47.267Z,9.80
2017-11-17T15:15:14.993Z,6.60
2017-11-17T15:17:42.868Z,7.63
2017-11-17T15:20:10.480Z,10.03
2017-11-17T15:22:38.239Z,9.20
2017-11-17T15:25:06.074Z,11.40
2017-11-17T15:27:33.853Z,13.50
2017-11-17T15:30:01.478Z,12.00
2017-11-17T15:32:29.906Z,10.73
2017-11-17T15:34:57.432Z,11.80
2017-11-17T15:37:25.583Z,18.33
2017-11-17T15:39:53.210Z,11.93
2017-11-17T15:42:21.852Z,11.20
2017-11-17T15:44:49.438Z,9.13
2017-11-17T15:47:17.086Z,9.13
2017-11-17T15:49:44.922Z,8.10
2017-11-17T15:52:12.489Z,12.53
2017-11-17T15:54:40.161Z,9.17
2017-11-17T15:57:07.799Z,12.33
2017-11-17T15:59:35.569Z,11.47
2017-11-17T16:02:03.239Z,10.20
2017-11-17T16:04:30.840Z,12.47
2017-11-17T16:06:58.525Z,9.43
2017-11-17T16:09:26.194Z,11.60
2017-11-17T16:11:54.019Z,12.17
2017-11-17T16:14:21.862Z,13.80
2017-11-17T16:16:49.611Z,12.23
2017-11-17T16:19:17.294Z,12.17
2017-11-17T16:21:45.116Z,13.93
2017-11-17T16:24:12.856Z,10.87
2017-11-17T16:26:40.727Z,13.30
2017-11-17T16:29:08.296Z,14.23
2017-11-17T16:31:35.920Z,11.83
2017-11-17T16:34:03.607Z,15.77
2017-11-17T16:36:31.179Z,15.50
2017-11-17T16:38:58.821Z,22.80
2017-11-17T16:41:26.508Z,20.53
2017-11-17T16:43:54.097Z,12.40
2017-11-17T16:46:22.370Z,12.57
2017-11-17T16:48:50.007Z,12.60
2017-11-17T16:51:17.762Z,12.77
2017-11-17T16:53:45.439Z,16.73
2017-11-17T16:56:13.545Z,17.90
2017-11-17T16:58:41.384Z,15.87
2017-11-17T17:01:09.032Z,11.67
2017-11-17T17:03:36.636Z,14.50
2017-11-17T17:06:04.468Z,13.80
2017-11-17T17:08:32.168Z,10.60
2017-11-17T17:10:59.943Z,11.87
2017-11-17T17:13:27.571Z,15.20
2017-11-17T17:15:56.054Z,24.73
2017-11-17T17:18:23.848Z,29.73
2017-11-17T17:20:51.518Z,27.10
2017-11-17T17:23:19.244Z,23.23
2017-11-17T17:25:46.852Z,28.97
2017-11-17T17:28:14.671Z,23.57
2017-11-17T17:30:43.236Z,21.23
2017-11-17T17:33:10.890Z,27.53
2017-11-17T17:35:38.444Z,23.70
2017-11-17T17:38:06.072Z,25.60
2017-11-17T17:40:33.870Z,28.47
2017-11-17T17:43:01.655Z,36.73
2017-11-17T17:45:29.348Z,31.40
2017-11-17T17:47:57.308Z,26.03
2017-11-17T17:50:25.029Z,45.93
2017-11-17T17:52:52.727Z,47.67
2017-11-17T17:55:21.262Z,44.63
2017-11-17T17:57:50.963Z,52.73
2017-11-17T18:00:18.651Z,49.07
2017-11-17T18:02:46.499Z,56.93
2017-11-17T18:05:15.449Z,51.23
2017-11-17T18:07:43.061Z,40.20
2017-11-17T18:10:10.740Z,36.83
2017-11-17T18:12:38.527Z,30.80
2017-11-17T18:15:06.123Z,23.90
2017-11-17T18:17:33.824Z,26.07
2017-11-17T18:20:01.391Z,25.37
2017-11-17T18:22:29.039Z,27.00
2017-11-17T18:24:56.586Z,31.70
2017-11-17T18:27:24.195Z,31.87
2017-11-17T18:29:51.947Z,25.33
2017-11-17T18:32:19.525Z,29.83
2017-11-17T18:34:47.161Z,31.58
2017-11-17T18:37:14.730Z,33.33
2017-11-17T18:39:42.352Z,32.00
2017-11-17T18:42:09.929Z,29.30
2017-11-17T18:44:37.754Z,38.17
2017-11-17T18:47:06.082Z,44.33
2017-11-17T18:49:34.547Z,29.37
2017-11-17T18:52:09.315Z,33.20
2017-11-17T18:54:36.914Z,37.60
2017-11-17T18:57:05.068Z,40.53
2017-11-17T18:59:34.276Z,31.33
2017-11-17T19:02:07.707Z,27.17
2017-11-17T19:04:35.402Z,37.70
2017-11-17T19:07:03.395Z,44.23
2017-11-17T19:09:30.976Z,34.73
2017-11-17T19:11:58.556Z,42.03
2017-11-17T19:14:26.454Z,34.20
2017-11-17T19:16:54.087Z,36.37
2017-11-17T19:19:21.648Z,32.73
2017-11-17T19:21:49.297Z,38.67
2017-11-17T19:24:16.872Z,38.10
2017-11-17T19:26:44.581Z,47.70
2017-11-17T19:29:12.267Z,56.57
2017-11-17T19:31:39.930Z,42.83
2017-11-17T19:34:07.553Z,46.60
2017-11-17T19:36:35.222Z,54.50
2017-11-17T19:39:02.887Z,50.10
2017-11-17T19:41:30.407Z,42.57
2017-11-17T19:43:59.136Z,37.63
2017-11-17T19:46:28.150Z,41.70
2017-11-17T19:48:55.745Z,44.50
2017-11-17T19:51:23.369Z,45.17
2017-11-17T19:53:51.027Z,39.93
2017-11-17T19:56:20.466Z,38.37
2017-11-17T19:58:48.209Z,34.70
2017-11-17T20:01:15.805Z,28.73
2017-11-17T20:03:43.354Z,23.97
2017-11-17T20:06:11.907Z,30.07
2017-11-17T20:08:39.540Z,40.13
2017-11-17T20:11:07.142Z,33.10
2017-11-17T20:13:34.993Z,33.33
2017-11-17T20:16:03.388Z,38.37
2017-11-17T20:18:30.991Z,43.63
2017-11-17T20:20:58.519Z,39.60
2017-11-17T20:23:27.005Z,38.43
2017-11-17T20:25:54.767Z,43.10
2017-11-17T20:28:22.345Z,38.23
2017-11-17T20:30:50.252Z,34.37
2017-11-17T20:33:19.151Z,32.10
2017-11-17T20:35:50.870Z,28.87
2017-11-17T20:38:18.894Z,36.83
2017-11-17T20:40:47.673Z,29.40
2017-11-17T20:43:16.852Z,24.77
2017-11-17T20:45:44.552Z,22.97
2017-11-17T20:48:13.730Z,23.27
2017-11-17T20:53:59.966Z,25.90
2017-11-17T20:56:27.890Z,26.87
2017-11-17T20:58:55.693Z,27.57
2017-11-17T21:01:23.865Z,26.60
2017-11-17T21:04:03.598Z,31.33
2017-11-17T21:06:31.261Z,29.50
2017-11-17T21:08:58.835Z,26.80
2017-11-17T21:11:26.616Z,30.70
2017-11-17T21:13:54.349Z,30.43
2017-11-17T21:16:22.544Z,32.30
2017-11-17T21:18:50.340Z,25.90
2017-11-17T21:21:18.500Z,28.77
2017-11-17T21:23:46.301Z,24.47
2017-11-17T21:26:14.135Z,37.27
2017-11-17T21:28:41.809Z,29.50
2017-11-17T21:31:10.483Z,30.10
2017-11-17T21:33:38.074Z,37.63
2017-11-17T21:36:06.256Z,29.97
2017-11-17T21:38:34.375Z,33.10
2017-11-17T21:41:02.197Z,29.80
2017-11-17T21:43:30.862Z,29.67
2017-11-17T21:45:59.511Z,33.53
2017-11-17T21:48:30.065Z,27.87
2017-11-17T21:50:57.815Z,27.20
2017-11-17T21:53:36.918Z,32.17
2017-11-17T21:56:07.649Z,34.20
2017-11-17T21:58:35.297Z,31.30
2017-11-17T22:01:03.182Z,33.53
2017-11-17T22:03:30.841Z,30.60
2017-11-17T22:05:59.071Z,29.10
2017-11-17T22:08:26.648Z,32.03
2017-11-17T22:10:54.183Z,31.90
2017-11-17T22:13:21.823Z,34.10
2017-11-17T22:15:49.433Z,31.50
2017-11-17T22:18:16.948Z,32.03
2017-11-17T22:20:44.476Z,31.33
2017-11-17T22:23:12.092Z,33.43
2017-11-17T22:25:39.647Z,37.33
2017-11-17T22:28:07.194Z,34.23
2017-11-17T22:30:34.843Z,37.57
2017-11-17T22:33:02.472Z,36.57
2017-11-17T22:35:30.015Z,33.60
2017-11-17T22:37:57.585Z,26.00
2017-11-17T22:40:25.100Z,33.77
2017-11-17T22:42:52.682Z,31.10
2017-11-17T22:45:20.260Z,33.87
2017-11-17T22:47:48.068Z,35.70
2017-11-17T22:50:15.589Z,36.20
2017-11-17T22:52:43.168Z,30.17
2017-11-17T22:55:10.727Z,32.03
2017-11-17T22:57:38.344Z,33.33
2017-11-17T23:00:06.463Z,26.07
2017-11-17T23:02:34.008Z,30.77
2017-11-17T23:05:01.566Z,29.50
2017-11-17T23:07:29.193Z,22.37
2017-11-17T23:09:56.770Z,24.43
2017-11-17T23:12:24.584Z,26.10
2017-11-17T23:14:52.157Z,27.40
2017-11-17T23:17:19.676Z,23.60
2017-11-17T23:19:47.881Z,31.73
2017-11-17T23:22:15.567Z,25.80
2017-11-17T23:24:43.106Z,24.67
2017-11-17T23:27:11.524Z,27.30
2017-11-17T23:29:39.137Z,30.97
2017-11-17T23:32:06.838Z,24.10
2017-11-17T23:34:34.390Z,27.20
2017-11-17T23:37:01.964Z,24.50
2017-11-17T23:39:29.720Z,26.97
2017-11-17T23:41:57.363Z,16.63
2017-11-17T23:44:24.885Z,18.10
2017-11-17T23:46:54.209Z,14.63
2017-11-17T23:49:21.770Z,13.13
2017-11-17T23:51:49.384Z,16.00
2017-11-17T23:54:17.170Z,11.23
2017-11-17T23:56:44.918Z,16.80
2017-11-17T23:59:12.804Z,13.80
